SBOSBO FCO / LIRF
Speedbird OnlineSpeedbird Online FCO / LIRF

Leonardo da Vinci–Fiumicino Airport
15:45 13.6°C

Location Rome, Italy
Latitude: 41.8002778
Longitude: 12.2388889
Web Airport Website | Wikipedia
Altitude 4 Meter / 13 Feet
Distance 1,418 KM / 881 Miles
from London.
Time Zone UTC +1 hours (Europe/Rome)
Codes IATA: FCO
ICAO: LIRF
Currency £1 equals EUR 1.14
Runways
RunwayLength (m)Surface
073307Asphalt
16C3602Asphalt
16L3902Asphalt
16R3902Asphalt
253307Asphalt
34C3602Asphalt
34L3902Asphalt
34R3902Asphalt
Radio
TypeDescriptionFrequency
ARRROMA DIRECTOR ARR120.175
ATISATIS121.85
CLDFIUME RAMP121.725
GNDFIUME GND/APRON121.8
TWRFIUME TWR118.7
Live ATC
METAR LIRF 311420Z 25009KT CAVOK 13/03 Q1022 NOSIG
TAF TAF LIRF 311100Z 3112/0118 05007KT CAVOK BECMG 3112/3114 29010KT BECMG 3118/3120 06007KT
Weather As Of 31 Jan 2023 15:45
Description Clear sky
Wind 17 km/h from West (250°)
Cloud Cover 0%
Precipitation Rain: none, Snow: none
Sunrise 07:24
Sunset 17:23
Lounges Prima Vista - Star Alliance Lounge, Terminal 1
Plaza Premium Lounge (E Gates), Terminal 3
British Airways Lounge (Open), Terminal 3
Prima Vista (E Gates) , Terminal 3, Pier E, Satellite Area
Rotations During the last 90 days there were
370 flights from LHR
367 flights to LHR
1 flights to LGW



Support Speedbird Online

© 2017-2023 Speedbird Online